Time;durP1;ratioP1;P1;durP2;ratioP2;P2;SDS_P1;SDS_P2;PMS_P1;PMS_P2;Temp;Humidity;BMP_temperature;BMP_pressure;BME280_temperature;BME280_humidity;BME280_pressure;Samples;Min_cycle;Max_cycle;Signal;HPM_P1;HPM_P2
2021/09/14 00:00:06;;;;;;;;;;;;;;;23.78;61.93;99400.09;2059513;28;20248;-43
2021/09/14 00:01:07;;;;;;;;;;;;;;;23.78;61.89;99397.34;2060008;28;19968;-42
2021/09/14 00:02:07;;;;;;;;;;;;;;;23.79;61.92;99400.94;2060732;28;19914;-43
2021/09/14 00:03:07;;;;;;;;;;;;;;;23.79;61.94;99407.31;2060804;28;19913;-45
2021/09/14 00:04:07;;;;;;;;;;;;;;;23.79;61.93;99412.81;2061544;28;19967;-43
2021/09/14 00:05:08;;;;;;;;;;;;;;;23.79;61.84;99418.31;2059658;28;19920;-43
2021/09/14 00:06:08;;;;;;;;;;;;;;;23.79;61.79;99407.31;2061738;28;19987;-43
2021/09/14 00:07:08;;;;;;;;;;;;;;;23.80;61.89;99409.00;2059529;28;19920;-43
2021/09/14 00:08:09;;;;;;;;;;;;;;;23.79;61.81;99412.81;2058882;28;19909;-44
2021/09/14 00:09:09;;;;;;;;;;;;;;;23.80;61.97;99413.66;2052872;28;20303;-44
2021/09/14 00:10:10;;;;;;;;;;;;;;;23.79;61.86;99412.81;2056020;28;19912;-43
2021/09/14 00:11:10;;;;;;;;;;;;;;;23.79;61.81;99412.81;2054119;28;19914;-44
2021/09/14 00:12:10;;;;;;;;;;;;;;;23.80;61.91;99408.16;2055048;28;19914;-43
2021/09/14 00:13:11;;;;;;;;;;;;;;;23.80;61.93;99413.66;2055969;28;20599;-43
2021/09/14 00:14:11;;;;;;;;;;;;;;;23.79;61.86;99410.06;2060834;28;19987;-43
2021/09/14 00:15:12;;;;;;;;;;;;;;;23.79;62.02;99403.69;2057576;28;19916;-44
2021/09/14 00:16:12;;;;;;;;;;;;;;;23.79;61.89;99407.31;2054272;28;19914;-43
2021/09/14 00:17:12;;;;;;;;;;;;;;;23.78;62.01;99413.84;2059636;28;19902;-43
2021/09/14 00:18:13;;;;;;;;;;;;;;;23.78;62.02;99408.34;2062672;28;19921;-44
2021/09/14 00:19:15;;;;;;;;;;;;;;;23.79;62.00;99415.56;2053636;28;19906;-43
2021/09/14 00:20:15;;;;;;;;;;;;;;;23.80;62.14;99410.91;2058258;28;19913;-43
2021/09/14 00:21:16;;;;;;;;;;;;;;;23.79;61.97;99412.81;2054773;28;20223;-43
2021/09/14 00:22:17;;;;;;;;;;;;;;;23.79;62.05;99412.81;2055617;28;19920;-43
2021/09/14 00:23:17;;;;;;;;;;;;;;;23.78;61.90;99402.84;2056982;28;19925;-43
2021/09/14 00:24:17;;;;;;;;;;;;;;;23.79;61.83;99411.94;2054865;28;20141;-43
2021/09/14 00:25:18;;;;;;;;;;;;;;;23.78;62.00;99408.34;2055475;28;19917;-44
2021/09/14 00:26:18;;;;;;;;;;;;;;;23.77;61.87;99409.41;2060840;28;20178;-43
2021/09/14 00:27:18;;;;;;;;;;;;;;;23.78;62.03;99410.25;2059861;28;19910;-43
2021/09/14 00:28:18;;;;;;;;;;;;;;;23.77;61.96;99409.41;2060838;28;19920;-44
2021/09/14 00:29:19;;;;;;;;;;;;;;;23.77;61.98;99403.91;2055553;28;19914;-43
2021/09/14 00:30:19;;;;;;;;;;;;;;;23.77;61.93;99406.66;2056901;28;19912;-43
2021/09/14 00:31:19;;;;;;;;;;;;;;;23.78;61.98;99405.59;2055829;28;20374;-43
2021/09/14 00:32:20;;;;;;;;;;;;;;;23.78;61.90;99404.75;2057930;28;19916;-43
2021/09/14 00:33:20;;;;;;;;;;;;;;;23.78;61.86;99402.00;2055987;28;20903;-44
2021/09/14 00:34:20;;;;;;;;;;;;;;;23.79;61.90;99410.06;2060139;28;19920;-43
2021/09/14 00:35:21;;;;;;;;;;;;;;;23.78;61.96;99402.84;2052240;28;20275;-45
2021/09/14 00:36:21;;;;;;;;;;;;;;;23.78;61.92;99408.34;2060739;28;20121;-43
2021/09/14 00:37:21;;;;;;;;;;;;;;;23.78;61.97;99404.75;2056272;28;19936;-43
2021/09/14 00:38:22;;;;;;;;;;;;;;;23.77;62.08;99403.91;2059301;28;19913;-44
2021/09/14 00:39:22;;;;;;;;;;;;;;;23.78;61.91;99399.25;2057560;28;20211;-43
2021/09/14 00:40:22;;;;;;;;;;;;;;;23.77;62.11;99403.91;2055938;28;20199;-44
2021/09/14 00:41:23;;;;;;;;;;;;;;;23.77;61.92;99403.91;2058941;28;20825;-44
2021/09/14 00:42:23;;;;;;;;;;;;;;;23.78;61.98;99404.75;2060159;28;20334;-42
2021/09/14 00:43:23;;;;;;;;;;;;;;;23.76;62.09;99402.19;2052109;28;20317;-44
2021/09/14 00:44:24;;;;;;;;;;;;;;;23.77;61.98;99403.91;2057800;28;19918;-43
2021/09/14 00:45:24;;;;;;;;;;;;;;;23.77;62.07;99398.41;2054512;28;19914;-44
2021/09/14 00:46:24;;;;;;;;;;;;;;;23.77;61.98;99403.91;2059800;28;20346;-43
2021/09/14 00:47:25;;;;;;;;;;;;;;;23.77;62.02;99398.41;2060426;28;19913;-43
2021/09/14 00:48:25;;;;;;;;;;;;;;;23.77;61.96;99392.91;2054621;28;19968;-44
2021/09/14 00:49:25;;;;;;;;;;;;;;;23.78;61.95;99393.75;2057722;28;19920;-43
2021/09/14 00:50:26;;;;;;;;;;;;;;;23.78;61.98;99391.84;2054951;28;19920;-43
2021/09/14 00:51:26;;;;;;;;;;;;;;;23.79;61.97;99395.44;2060172;28;19991;-43
2021/09/14 00:52:28;;;;;;;;;;;;;;;23.77;61.92;99390.16;2060459;28;19913;-44
2021/09/14 00:53:28;;;;;;;;;;;;;;;23.78;61.93;99382.72;2060089;28;19917;-43
2021/09/14 00:54:29;;;;;;;;;;;;;;;23.78;61.94;99385.47;2059406;28;19909;-42
2021/09/14 00:55:29;;;;;;;;;;;;;;;23.78;62.02;99386.34;2061899;28;19947;-42
2021/09/14 00:56:30;;;;;;;;;;;;;;;23.78;61.93;99389.09;2057166;28;19913;-43
2021/09/14 00:57:31;;;;;;;;;;;;;;;23.78;61.88;99383.56;2058544;28;19956;-43
2021/09/14 00:58:31;;;;;;;;;;;;;;;23.78;61.82;99383.56;2053719;28;20455;-50
2021/09/14 00:59:32;;;;;;;;;;;;;;;23.77;61.92;99384.63;2063818;28;19971;-43
2021/09/14 01:00:33;;;;;;;;;;;;;;;23.77;61.95;99381.88;2060800;28;20405;-43
2021/09/14 01:01:33;;;;;;;;;;;;;;;23.77;61.94;99379.13;2059688;28;19955;-43
2021/09/14 01:02:34;;;;;;;;;;;;;;;23.77;62.04;99384.63;2060582;28;19913;-43
2021/09/14 01:03:34;;;;;;;;;;;;;;;23.78;62.06;99377.22;2060945;28;19914;-44
2021/09/14 01:04:35;;;;;;;;;;;;;;;23.78;61.97;99380.81;2061512;28;20628;-47
2021/09/14 01:05:35;;;;;;;;;;;;;;;23.76;62.11;99380.16;2060013;28;19936;-43
2021/09/14 01:06:36;;;;;;;;;;;;;;;23.78;61.99;99389.09;2061882;28;19913;-43
2021/09/14 01:07:37;;;;;;;;;;;;;;;23.77;62.08;99390.16;2059033;28;20533;-45
2021/09/14 01:08:39;;;;;;;;;;;;;;;23.77;62.12;99386.56;2060355;28;19913;-44
2021/09/14 01:09:40;;;;;;;;;;;;;;;23.76;61.86;99385.66;2060648;28;19971;-48
2021/09/14 01:10:40;;;;;;;;;;;;;;;23.75;62.12;99384.81;2060750;28;19976;-48
2021/09/14 01:11:41;;;;;;;;;;;;;;;23.75;62.03;99379.31;2058200;28;19928;-48
2021/09/14 01:12:41;;;;;;;;;;;;;;;23.76;62.08;99391.19;2053366;28;20691;-48
2021/09/14 01:13:41;;;;;;;;;;;;;;;23.77;62.23;99387.41;2058697;28;19960;-48
2021/09/14 01:14:50;;;;;;;;;;;;;;;23.78;62.29;99385.47;2053007;28;19936;-48
2021/09/14 01:15:51;;;;;;;;;;;;;;;23.77;62.13;99387.41;2054876;28;20767;-47
2021/09/14 01:16:51;;;;;;;;;;;;;;;23.77;61.96;99387.41;2054860;28;20000;-48
2021/09/14 01:17:51;;;;;;;;;;;;;;;23.76;62.00;99388.41;2062120;28;20062;-48
2021/09/14 01:18:52;;;;;;;;;;;;;;;23.76;62.16;99396.69;2060250;28;20000;-48
2021/09/14 01:19:52;;;;;;;;;;;;;;;23.76;62.14;99396.69;2061185;28;20393;-48
2021/09/14 01:20:52;;;;;;;;;;;;;;;23.77;62.01;99384.63;2059744;28;20547;-48
2021/09/14 01:21:53;;;;;;;;;;;;;;;23.75;62.16;99384.81;2061350;28;20374;-48
2021/09/14 01:22:53;;;;;;;;;;;;;;;23.75;62.17;99383.97;2059060;28;20103;-48
2021/09/14 01:23:54;;;;;;;;;;;;;;;23.76;62.12;99380.16;2060026;28;19913;-48
2021/09/14 01:24:54;;;;;;;;;;;;;;;23.74;62.07;99371.28;2059479;28;19905;-48
2021/09/14 01:25:54;;;;;;;;;;;;;;;23.76;62.10;99371.91;2058821;28;19960;-48
2021/09/14 01:26:55;;;;;;;;;;;;;;;23.76;62.22;99371.91;2060773;28;19919;-48
2021/09/14 01:28:00;;;;;;;;;;;;;;;23.77;62.19;99364.53;2059227;28;20422;-48
2021/09/14 01:29:10;;;;;;;;;;;;;;;23.76;62.16;99371.91;2057371;28;19913;-48
2021/09/14 01:30:18;;;;;;;;;;;;;;;23.76;62.15;99360.91;2054702;28;19952;-48
2021/09/14 01:31:19;;;;;;;;;;;;;;;23.75;62.16;99357.31;2054569;28;19917;-48
2021/09/14 01:32:19;;;;;;;;;;;;;;;23.76;62.19;99358.16;2062006;28;19909;-48
2021/09/14 01:33:19;;;;;;;;;;;;;;;23.75;62.05;99361.97;2056828;28;19913;-48
2021/09/14 01:34:20;;;;;;;;;;;;;;;23.76;62.08;99352.66;2059675;28;20325;-48
2021/09/14 01:35:24;;;;;;;;;;;;;;;23.77;62.08;99353.53;2059714;28;20050;-48
2021/09/14 01:36:25;;;;;;;;;;;;;;;23.76;62.19;99352.66;2055766;28;19977;-48
2021/09/14 01:37:25;;;;;;;;;;;;;;;23.76;62.19;99347.16;2055505;28;19913;-48
2021/09/14 01:38:25;;;;;;;;;;;;;;;23.75;62.13;99350.97;2062073;28;19920;-48
2021/09/14 01:39:25;;;;;;;;;;;;;;;23.75;62.17;99345.47;2058728;28;19913;-48
2021/09/14 01:40:26;;;;;;;;;;;;;;;23.75;62.26;99339.97;2058713;28;19942;-48
2021/09/14 01:41:26;;;;;;;;;;;;;;;23.76;62.16;99336.13;2052662;28;20584;-48
2021/09/14 01:42:27;;;;;;;;;;;;;;;23.75;62.12;99339.97;2058032;28;19924;-48
2021/09/14 01:43:27;;;;;;;;;;;;;;;23.76;62.23;99336.13;2059813;28;19949;-48
2021/09/14 01:44:27;;;;;;;;;;;;;;;23.75;62.11;99340.78;2060032;28;20004;-48
2021/09/14 01:45:28;;;;;;;;;;;;;;;23.75;62.18;99339.97;2060712;28;20035;-48
2021/09/14 01:46:28;;;;;;;;;;;;;;;23.74;62.10;99338.25;2057246;28;19929;-48
2021/09/14 01:47:28;;;;;;;;;;;;;;;23.75;62.23;99328.94;2060660;28;20245;-48
2021/09/14 01:48:29;;;;;;;;;;;;;;;23.75;62.34;99328.94;2059594;28;19918;-48
2021/09/14 01:49:29;;;;;;;;;;;;;;;23.75;62.15;99328.94;2059011;28;19964;-48
2021/09/14 01:50:29;;;;;;;;;;;;;;;23.75;62.32;99326.19;2060744;28;19917;-48
2021/09/14 01:51:30;;;;;;;;;;;;;;;23.75;62.20;99329.78;2058716;28;19905;-48
2021/09/14 01:52:32;;;;;;;;;;;;;;;23.74;62.14;99321.75;2060934;28;19913;-48
2021/09/14 01:53:32;;;;;;;;;;;;;;;23.74;62.21;99321.75;2056891;28;19913;-48
2021/09/14 01:54:32;;;;;;;;;;;;;;;23.75;62.27;99323.44;2058942;28;19923;-48
2021/09/14 01:55:33;;;;;;;;;;;;;;;23.75;62.29;99323.44;2059633;28;19956;-48
2021/09/14 01:56:33;;;;;;;;;;;;;;;23.75;62.29;99323.44;2059127;28;19917;-48
2021/09/14 01:57:35;;;;;;;;;;;;;;;23.75;62.32;99320.69;2060706;28;19933;-48
2021/09/14 01:58:36;;;;;;;;;;;;;;;23.75;62.36;99321.53;2058407;28;20179;-48
2021/09/14 01:59:37;;;;;;;;;;;;;;;23.76;62.38;99327.88;2061939;28;20322;-48
2021/09/14 02:00:43;;;;;;;;;;;;;;;23.76;62.34;99325.13;2062348;28;19913;-48
2021/09/14 02:01:51;;;;;;;;;;;;;;;23.76;62.32;99330.63;2060014;28;19913;-49
2021/09/14 02:04:03;;;;;;;;;;;;;;;23.75;62.32;99326.19;2061541;28;19913;-48
2021/09/14 02:05:19;;;;;;;;;;;;;;;23.75;62.40;99327.03;2059898;28;19963;-48
2021/09/14 02:40:14;;;;;;;;;;;;;;;23.71;62.47;99319.34;2060655;28;19932;-44
2021/09/14 02:56:24;;;;;;;;;;;;;;;23.71;62.61;99308.34;2054083;28;19921;-43
2021/09/14 02:58:54;;;;;;;;;;;;;;;23.71;62.54;99300.09;2059008;28;20298;-43
2021/09/14 02:59:54;;;;;;;;;;;;;;;23.71;62.37;99303.72;2060509;28;19929;-43
2021/09/14 03:00:55;;;;;;;;;;;;;;;23.71;62.53;99300.09;2062604;28;19960;-42
2021/09/14 03:01:55;;;;;;;;;;;;;;;23.72;62.36;99301.81;2065585;28;19906;-42
2021/09/14 03:02:55;;;;;;;;;;;;;;;23.71;62.48;99300.09;2059165;28;19919;-44
2021/09/14 03:03:56;;;;;;;;;;;;;;;23.70;62.39;99303.91;2055988;28;20231;-43
2021/09/14 03:04:57;;;;;;;;;;;;;;;23.71;62.39;99300.09;2059453;28;19905;-45
2021/09/14 03:05:57;;;;;;;;;;;;;;;23.71;62.38;99306.47;2055983;28;19914;-43
2021/09/14 03:06:57;;;;;;;;;;;;;;;23.71;62.42;99300.09;2060163;28;20137;-43
2021/09/14 03:07:58;;;;;;;;;;;;;;;23.72;62.29;99312.81;2060299;28;20966;-42
2021/09/14 03:08:58;;;;;;;;;;;;;;;23.70;62.28;99299.25;2060522;28;20104;-43
2021/09/14 03:09:58;;;;;;;;;;;;;;;23.71;62.33;99300.09;2062034;28;19912;-42
2021/09/14 03:11:09;;;;;;;;;;;;;;;23.71;62.29;99300.09;2056932;28;19924;-43
2021/09/14 03:12:09;;;;;;;;;;;;;;;23.70;62.28;99302.00;2062638;28;19912;-42
2021/09/14 03:13:09;;;;;;;;;;;;;;;23.72;62.29;99296.31;2059982;28;19913;-42
2021/09/14 03:14:10;;;;;;;;;;;;;;;23.71;62.29;99298.22;2061791;28;19936;-42
2021/09/14 03:15:10;;;;;;;;;;;;;;;23.71;62.38;99294.59;2056389;28;20015;-43
2021/09/14 03:16:11;;;;;;;;;;;;;;;23.71;62.32;99294.59;2055905;28;19944;-42
2021/09/14 03:17:12;;;;;;;;;;;;;;;23.71;62.25;99300.09;2062067;28;20185;-42
2021/09/14 03:18:12;;;;;;;;;;;;;;;23.72;62.37;99301.81;2062893;28;19940;-43
2021/09/14 03:19:12;;;;;;;;;;;;;;;23.71;62.29;99311.09;2053794;28;20545;-43
2021/09/14 03:20:13;;;;;;;;;;;;;;;23.71;62.32;99311.97;2056843;28;20129;-42
2021/09/14 03:21:14;;;;;;;;;;;;;;;23.72;62.27;99323.81;2058727;28;19924;-43
2021/09/14 03:22:14;;;;;;;;;;;;;;;23.72;62.42;99326.56;2056904;28;20092;-43
2021/09/14 03:23:14;;;;;;;;;;;;;;;23.71;62.43;99333.09;2062053;28;20414;-43
2021/09/14 03:24:14;;;;;;;;;;;;;;;23.72;62.38;99332.06;2059459;28;20389;-44
2021/09/14 03:25:15;;;;;;;;;;;;;;;23.71;62.33;99328.47;2059425;28;19913;-42
2021/09/14 03:26:15;;;;;;;;;;;;;;;23.72;62.31;99329.31;2061073;28;19963;-43
2021/09/14 03:27:15;;;;;;;;;;;;;;;23.72;62.31;99323.81;2058760;28;19945;-42
2021/09/14 03:28:16;;;;;;;;;;;;;;;23.72;62.25;99318.31;2061475;28;20349;-42
2021/09/14 03:29:18;;;;;;;;;;;;;;;23.71;62.25;99311.09;2059439;28;19913;-42
2021/09/14 03:30:19;;;;;;;;;;;;;;;23.72;62.31;99312.81;2060296;28;19965;-47
2021/09/14 03:31:19;;;;;;;;;;;;;;;23.71;62.35;99300.97;2061495;28;19936;-47
2021/09/14 03:32:19;;;;;;;;;;;;;;;23.71;62.23;99311.97;2057134;28;20384;-48
2021/09/14 03:33:20;;;;;;;;;;;;;;;23.72;62.31;99310.06;2061777;28;19913;-47
2021/09/14 03:34:20;;;;;;;;;;;;;;;23.72;62.38;99321.06;2059138;28;20470;-47
2021/09/14 03:35:21;;;;;;;;;;;;;;;23.72;62.30;99318.31;2062474;28;20558;-48
2021/09/14 03:36:21;;;;;;;;;;;;;;;23.72;62.38;99318.31;2061961;28;19913;-47
2021/09/14 03:37:21;;;;;;;;;;;;;;;23.72;62.29;99319.16;2059059;28;20712;-48
2021/09/14 03:38:22;;;;;;;;;;;;;;;23.71;62.37;99305.59;2061794;28;20279;-48
2021/09/14 03:39:22;;;;;;;;;;;;;;;23.71;62.32;99303.72;2058120;28;19938;-47
2021/09/14 03:40:22;;;;;;;;;;;;;;;23.71;62.37;99298.22;2060550;28;19913;-48
2021/09/14 03:41:23;;;;;;;;;;;;;;;23.70;62.20;99299.25;2060520;28;20092;-48
2021/09/14 03:42:23;;;;;;;;;;;;;;;23.71;62.52;99300.09;2059349;28;19914;-47
2021/09/14 03:43:23;;;;;;;;;;;;;;;23.70;62.40;99295.66;2052329;28;20316;-47
2021/09/14 03:44:24;;;;;;;;;;;;;;;23.70;62.48;99284.63;2057497;28;19913;-48
2021/09/14 03:45:24;;;;;;;;;;;;;;;23.70;62.52;99299.25;2060774;28;19920;-48
2021/09/14 03:46:24;;;;;;;;;;;;;;;23.70;62.37;99292.91;2059198;28;19980;-47
2021/09/14 03:47:24;;;;;;;;;;;;;;;23.70;62.43;99299.25;2058375;28;19994;-47
2021/09/14 03:48:25;;;;;;;;;;;;;;;23.70;62.39;99306.66;2059579;28;19914;-47
2021/09/14 03:49:26;;;;;;;;;;;;;;;23.70;62.39;99309.41;2057759;28;19912;-47
2021/09/14 03:50:26;;;;;;;;;;;;;;;23.71;62.33;99305.59;2059931;28;20471;-48
2021/09/14 03:51:26;;;;;;;;;;;;;;;23.71;62.43;99313.84;2062110;28;19917;-48
2021/09/14 03:52:27;;;;;;;;;;;;;;;23.70;62.43;99307.50;2060888;28;19920;-47
2021/09/14 03:53:27;;;;;;;;;;;;;;;23.71;62.31;99311.09;2062462;28;19960;-48
2021/09/14 03:54:27;;;;;;;;;;;;;;;23.71;62.39;99308.34;2058917;28;20661;-48
2021/09/14 03:55:28;;;;;;;;;;;;;;;23.71;62.42;99311.09;2060786;28;19913;-48
2021/09/14 03:56:28;;;;;;;;;;;;;;;23.70;62.62;99310.25;2067984;28;19913;-48
2021/09/14 03:57:28;;;;;;;;;;;;;;;23.71;62.47;99306.47;2066957;28;20362;-47
2021/09/14 03:58:29;;;;;;;;;;;;;;;23.70;62.25;99313.00;2061448;28;19913;-47
2021/09/14 03:59:29;;;;;;;;;;;;;;;23.71;62.40;99311.09;2057928;28;20226;-48
2021/09/14 04:00:30;;;;;;;;;;;;;;;23.71;62.38;99300.97;2060482;28;20493;-48
2021/09/14 04:01:34;;;;;;;;;;;;;;;23.70;62.38;99304.75;2060044;28;20695;-47
2021/09/14 04:04:16;;;;;;;;;;;;;;;23.71;62.38;99302.84;2049784;28;19998;-47
2021/09/14 04:08:52;;;;;;;;;;;;;;;23.70;62.39;99293.75;2061366;28;19916;-47
2021/09/14 04:09:52;;;;;;;;;;;;;;;23.71;62.30;99298.22;2059836;28;19968;-47
2021/09/14 04:10:56;;;;;;;;;;;;;;;23.71;62.38;99305.59;2061226;28;19913;-46
2021/09/14 04:11:56;;;;;;;;;;;;;;;23.71;62.44;99300.09;2053001;28;19909;-45
2021/09/14 04:12:57;;;;;;;;;;;;;;;23.70;62.64;99299.25;2056407;28;19928;-42
2021/09/14 04:13:57;;;;;;;;;;;;;;;23.71;62.44;99294.59;2060230;28;19905;-42
2021/09/14 04:14:58;;;;;;;;;;;;;;;23.71;62.61;99295.47;2059040;28;19913;-42
2021/09/14 04:15:58;;;;;;;;;;;;;;;23.71;62.45;99300.97;2060744;28;19909;-42
2021/09/14 04:16:59;;;;;;;;;;;;;;;23.70;62.58;99298.41;2054680;28;19988;-42
2021/09/14 04:17:59;;;;;;;;;;;;;;;23.71;62.51;99289.09;2054066;28;20131;-42
2021/09/14 04:18:59;;;;;;;;;;;;;;;23.69;62.52;99289.31;2053053;28;20213;-42
2021/09/14 04:19:59;;;;;;;;;;;;;;;23.71;62.47;99291.84;2056022;28;20299;-43
2021/09/14 04:21:00;;;;;;;;;;;;;;;23.70;62.59;99288.22;2062066;28;19923;-42
2021/09/14 04:22:00;;;;;;;;;;;;;;;23.70;62.55;99285.47;2059937;28;19913;-43
2021/09/14 04:23:01;;;;;;;;;;;;;;;23.70;62.60;99282.72;2063183;28;19967;-42
2021/09/14 04:24:01;;;;;;;;;;;;;;;23.71;62.48;99278.06;2058626;28;20159;-42
2021/09/14 04:25:01;;;;;;;;;;;;;;;23.70;62.69;99288.22;2061818;28;20299;-42
2021/09/14 04:26:02;;;;;;;;;;;;;;;23.72;62.52;99285.28;2058646;28;19917;-44
2021/09/14 04:27:03;;;;;;;;;;;;;;;23.71;62.55;99283.56;2060832;28;19921;-42
2021/09/14 04:28:03;;;;;;;;;;;;;;;23.70;62.66;99282.72;2058769;28;19994;-45
2021/09/14 04:29:03;;;;;;;;;;;;;;;23.70;62.55;99279.13;2058089;28;19968;-43
2021/09/14 04:30:05;;;;;;;;;;;;;;;23.71;62.67;99280.81;2060318;28;20353;-42
2021/09/14 04:31:05;;;;;;;;;;;;;;;23.71;62.50;99275.31;2059505;28;19944;-43
2021/09/14 04:32:06;;;;;;;;;;;;;;;23.70;62.55;99279.13;2061023;28;19920;-42
2021/09/14 04:33:08;;;;;;;;;;;;;;;23.70;62.50;99284.63;2059335;28;19948;-43
2021/09/14 04:34:08;;;;;;;;;;;;;;;23.71;62.50;99283.56;2058787;28;20854;-43
2021/09/14 04:35:09;;;;;;;;;;;;;;;23.71;62.55;99291.84;2052933;28;20140;-45
2021/09/14 04:36:09;;;;;;;;;;;;;;;23.71;62.55;99278.06;2058223;28;19913;-43
2021/09/14 04:37:09;;;;;;;;;;;;;;;23.71;62.64;99289.09;2060379;28;19920;-44
2021/09/14 04:38:10;;;;;;;;;;;;;;;23.70;62.51;99288.22;2061705;28;19917;-43
2021/09/14 04:39:10;;;;;;;;;;;;;;;23.69;62.68;99289.31;2059101;28;19914;-44
2021/09/14 04:40:11;;;;;;;;;;;;;;;23.70;62.63;99287.38;2061175;28;19918;-43
2021/09/14 04:41:11;;;;;;;;;;;;;;;23.70;62.58;99276.38;2059328;28;20334;-42
2021/09/14 04:42:11;;;;;;;;;;;;;;;23.71;62.62;99291.84;2062410;28;19906;-43
2021/09/14 04:43:12;;;;;;;;;;;;;;;23.69;62.57;99289.31;2059268;28;19920;-43
2021/09/14 04:44:12;;;;;;;;;;;;;;;23.70;62.67;99281.88;2059086;28;20125;-42
2021/09/14 04:45:13;;;;;;;;;;;;;;;23.69;62.71;99280.16;2061188;28;20488;-42
2021/09/14 04:46:13;;;;;;;;;;;;;;;23.70;62.67;99284.63;2058813;28;20515;-42
2021/09/14 04:47:13;;;;;;;;;;;;;;;23.70;62.68;99281.88;2060281;28;19913;-42
2021/09/14 04:48:14;;;;;;;;;;;;;;;23.69;62.72;99278.28;2060799;28;19909;-42
2021/09/14 04:49:14;;;;;;;;;;;;;;;23.70;62.86;99279.13;2057146;28;20343;-42
2021/09/14 04:50:15;;;;;;;;;;;;;;;23.69;62.61;99270.03;2061159;28;19928;-42
2021/09/14 04:51:15;;;;;;;;;;;;;;;23.69;62.58;99277.41;2065569;28;19952;-43
2021/09/14 04:52:15;;;;;;;;;;;;;;;23.69;62.56;99270.03;2063338;28;19921;-42
2021/09/14 04:53:16;;;;;;;;;;;;;;;23.69;62.63;99275.53;2058507;28;20680;-43
2021/09/14 04:54:16;;;;;;;;;;;;;;;23.70;62.65;99276.38;2059028;28;20374;-43
2021/09/14 04:55:17;;;;;;;;;;;;;;;23.71;62.59;99275.31;2060730;28;19917;-43
2021/09/14 04:56:17;;;;;;;;;;;;;;;23.70;62.58;99279.97;2058755;28;19935;-42
2021/09/14 04:57:17;;;;;;;;;;;;;;;23.69;62.58;99281.03;2060942;28;19948;-42
2021/09/14 04:58:17;;;;;;;;;;;;;;;23.69;62.65;99275.53;2060795;28;20464;-42
2021/09/14 04:59:18;;;;;;;;;;;;;;;23.70;62.64;99281.88;2058431;28;20138;-43
2021/09/14 05:00:18;;;;;;;;;;;;;;;23.70;62.68;99279.13;2060727;28;20319;-42
2021/09/14 05:01:19;;;;;;;;;;;;;;;23.69;62.64;99285.66;2059425;28;20515;-43
2021/09/14 05:02:20;;;;;;;;;;;;;;;23.70;62.48;99276.38;2060662;28;20225;-42
2021/09/14 05:03:20;;;;;;;;;;;;;;;23.70;62.56;99287.38;2052611;28;19949;-43
2021/09/14 05:04:21;;;;;;;;;;;;;;;23.70;62.58;99288.22;2056971;28;19979;-42
2021/09/14 05:05:21;;;;;;;;;;;;;;;23.70;62.53;99281.88;2060280;28;19917;-42
2021/09/14 05:06:21;;;;;;;;;;;;;;;23.69;62.56;99285.66;2058757;28;20083;-44
2021/09/14 05:07:22;;;;;;;;;;;;;;;23.69;62.66;99288.44;2060088;28;19949;-42
2021/09/14 05:08:22;;;;;;;;;;;;;;;23.70;62.64;99284.63;2053296;28;20368;-42
2021/09/14 05:09:22;;;;;;;;;;;;;;;23.69;62.69;99286.56;2054433;28;20282;-42
2021/09/14 05:10:23;;;;;;;;;;;;;;;23.70;62.83;99292.91;2052250;28;19991;-43
2021/09/14 05:11:23;;;;;;;;;;;;;;;23.69;62.75;99281.03;2056109;28;19936;-44
2021/09/14 05:12:23;;;;;;;;;;;;;;;23.69;62.61;99285.66;2060532;28;20367;-43
2021/09/14 05:13:24;;;;;;;;;;;;;;;23.69;62.68;99281.03;2054635;28;19921;-43
2021/09/14 05:14:24;;;;;;;;;;;;;;;23.69;62.67;99278.28;2053395;28;20247;-43
2021/09/14 05:15:24;;;;;;;;;;;;;;;23.69;62.61;99275.53;2059988;28;19941;-42
2021/09/14 05:16:24;;;;;;;;;;;;;;;23.69;62.74;99277.41;2059528;28;19960;-42
2021/09/14 05:17:25;;;;;;;;;;;;;;;23.69;62.69;99277.41;2060613;28;20564;-43
2021/09/14 05:18:25;;;;;;;;;;;;;;;23.69;62.58;99281.03;2059647;28;22184;-43
2021/09/14 05:19:33;;;;;;;;;;;;;;;23.69;62.73;99270.03;2060135;28;19909;-43
2021/09/14 05:20:34;;;;;;;;;;;;;;;23.69;62.45;99274.66;2055113;28;19917;-42
2021/09/14 05:21:43;;;;;;;;;;;;;;;23.69;62.65;99274.66;2060417;28;20365;-43
2021/09/14 05:22:46;;;;;;;;;;;;;;;23.69;62.70;99269.16;2059267;28;20008;-43
2021/09/14 05:23:46;;;;;;;;;;;;;;;23.69;62.60;99270.03;2059993;28;20004;-43
2021/09/14 05:24:47;;;;;;;;;;;;;;;23.69;62.62;99269.16;2061877;28;19921;-43
2021/09/14 05:25:47;;;;;;;;;;;;;;;23.68;62.61;99270.22;2059108;28;19909;-43
2021/09/14 05:26:47;;;;;;;;;;;;;;;23.69;62.77;99266.41;2061199;28;20304;-43
2021/09/14 05:27:48;;;;;;;;;;;;;;;23.70;62.69;99265.38;2059542;28;19971;-47
2021/09/14 05:28:48;;;;;;;;;;;;;;;23.68;62.78;99268.31;2058347;28;19923;-42
2021/09/14 05:29:48;;;;;;;;;;;;;;;23.69;62.76;99269.16;2060468;28;19932;-43
2021/09/14 05:30:49;;;;;;;;;;;;;;;23.69;62.67;99272.78;2059139;28;19914;-43
2021/09/14 05:31:50;;;;;;;;;;;;;;;23.69;62.69;99275.53;2062298;28;19917;-42
2021/09/14 05:32:50;;;;;;;;;;;;;;;23.69;62.60;99275.53;2060398;28;19932;-42
2021/09/14 05:33:51;;;;;;;;;;;;;;;23.69;62.66;99271.91;2060175;28;19914;-43
2021/09/14 05:34:51;;;;;;;;;;;;;;;23.70;62.70;99265.38;2061822;28;20011;-43
2021/09/14 05:35:52;;;;;;;;;;;;;;;23.69;62.84;99269.16;2060564;28;20326;-42
2021/09/14 05:36:53;;;;;;;;;;;;;;;23.70;62.69;99265.38;2062419;28;19909;-42
2021/09/14 05:37:54;;;;;;;;;;;;;;;23.70;62.75;99265.38;2060180;28;19920;-43
2021/09/14 05:38:55;;;;;;;;;;;;;;;23.69;62.76;99263.66;2060458;28;20012;-42
2021/09/14 05:39:55;;;;;;;;;;;;;;;23.69;62.62;99266.41;2060580;28;19981;-44
2021/09/14 05:40:56;;;;;;;;;;;;;;;23.69;62.80;99258.16;2060678;28;19913;-42
2021/09/14 05:41:56;;;;;;;;;;;;;;;23.69;62.70;99260.91;2061516;28;20344;-43
2021/09/14 05:42:57;;;;;;;;;;;;;;;23.70;62.76;99259.88;2061532;28;20312;-42
2021/09/14 05:43:57;;;;;;;;;;;;;;;23.69;62.71;99255.41;2062278;28;19913;-42
2021/09/14 05:44:57;;;;;;;;;;;;;;;23.69;62.78;99255.41;2058344;28;19959;-43
2021/09/14 05:45:58;;;;;;;;;;;;;;;23.70;62.62;99248.88;2060273;28;20434;-43
2021/09/14 05:46:58;;;;;;;;;;;;;;;23.69;62.64;99256.28;2068547;28;19913;-42
2021/09/14 05:47:58;;;;;;;;;;;;;;;23.68;62.73;99246.31;2057368;28;20016;-43
2021/09/14 05:48:59;;;;;;;;;;;;;;;23.69;62.72;99252.66;2061292;28;20357;-43
2021/09/14 05:50:01;;;;;;;;;;;;;;;23.69;62.74;99249.91;2060835;28;19949;-42
2021/09/14 05:51:01;;;;;;;;;;;;;;;23.69;62.64;99247.16;2058935;28;19917;-43
2021/09/14 05:52:02;;;;;;;;;;;;;;;23.68;62.72;99251.81;2059779;28;19917;-42
2021/09/14 05:53:02;;;;;;;;;;;;;;;23.68;62.70;99245.47;2058800;28;20320;-43
2021/09/14 05:54:02;;;;;;;;;;;;;;;23.68;62.73;99246.31;2062016;28;20177;-45
2021/09/14 05:55:03;;;;;;;;;;;;;;;23.68;62.67;99248.22;2059805;28;19924;-43
2021/09/14 05:56:04;;;;;;;;;;;;;;;23.68;62.80;99239.97;2060830;28;19913;-43
2021/09/14 05:57:04;;;;;;;;;;;;;;;23.69;62.76;99247.16;2060302;28;20220;-42
2021/09/14 05:58:05;;;;;;;;;;;;;;;23.69;62.78;99244.41;2056370;28;19913;-44
2021/09/14 05:59:06;;;;;;;;;;;;;;;23.68;62.78;99249.06;2054101;28;19913;-42
2021/09/14 06:00:07;;;;;;;;;;;;;;;23.68;62.69;99245.47;2058550;28;19936;-42
2021/09/14 06:01:08;;;;;;;;;;;;;;;23.69;62.74;99241.66;2060196;28;20016;-44
2021/09/14 06:02:08;;;;;;;;;;;;;;;23.68;62.77;99245.47;2059184;28;19929;-42
2021/09/14 06:03:08;;;;;;;;;;;;;;;23.69;62.78;99241.66;2060538;28;19913;-43
2021/09/14 06:04:09;;;;;;;;;;;;;;;23.69;62.65;99238.91;2062704;28;20374;-42
2021/09/14 06:05:09;;;;;;;;;;;;;;;23.68;62.72;99239.97;2059401;28;19917;-43
2021/09/14 06:06:09;;;;;;;;;;;;;;;23.68;62.72;99240.81;2061895;28;19920;-42
2021/09/14 06:07:10;;;;;;;;;;;;;;;23.69;62.85;99236.16;2061232;28;20402;-43
2021/09/14 06:08:10;;;;;;;;;;;;;;;23.68;62.82;99238.06;2059685;28;20214;-42
2021/09/14 06:09:10;;;;;;;;;;;;;;;23.69;62.78;99238.91;2061175;28;19909;-43
2021/09/14 06:10:11;;;;;;;;;;;;;;;23.68;62.70;99234.47;2058355;28;19913;-44
2021/09/14 06:11:11;;;;;;;;;;;;;;;23.69;62.75;99242.53;2061736;28;19936;-43
2021/09/14 06:12:12;;;;;;;;;;;;;;;23.69;62.80;99241.66;2059641;28;19972;-43
2021/09/14 06:13:12;;;;;;;;;;;;;;;23.69;62.73;99247.16;2060417;28;20043;-43